Terminal Aerodrome Forecast
Issued by NWS Des Moines, IA

Home | Current Version | Previous Version | Text Only | Print | Product List | Glossary On
Versions: 1 2 3 4 5 6 7 8 9 10 11 12 13 14 15 16 17 18 19
282
FTUS43 KDMX 221123
TAFDSM
TAF
KDSM 221123Z 2212/2312 29004KT P6SM SKC
     FM221700 21009KT P6SM SCT200
     FM230000 24005KT P6SM SCT070 BKN160
     FM231000 14006KT P6SM BKN060=

USA.gov is the U.S. government's official web portal to all federal, state and local government web resources and services.